Time;durP1;ratioP1;P1;durP2;ratioP2;P2;SDS_P1;SDS_P2;PMS_P1;PMS_P2;Temp;Humidity;BMP_temperature;BMP_pressure;BME280_temperature;BME280_humidity;BME280_pressure;Samples;Min_cycle;Max_cycle;Signal;HPM_P1;HPM_P2
2021/06/22 00:01:05;;;;;;;4.18;2.45;;;;;;;22.22;48.12;101710.31;4887248;29;20033;-92
2021/06/22 00:03:30;;;;;;;2.55;2.20;;;;;;;22.19;48.36;101700.75;4887751;29;20461;-92
2021/06/22 00:05:56;;;;;;;2.83;2.13;;;;;;;22.19;48.10;101703.38;4888157;29;20041;-93
2021/06/22 00:08:21;;;;;;;3.45;2.15;;;;;;;22.21;48.07;101713.81;4872667;29;20045;-92
2021/06/22 00:10:53;;;;;;;3.58;2.42;;;;;;;22.21;47.99;101712.06;4892465;29;20105;-96
2021/06/22 00:13:18;;;;;;;3.00;2.25;;;;;;;22.24;47.96;101712.06;4891616;29;20057;-92
2021/06/22 00:15:44;;;;;;;2.78;2.10;;;;;;;22.22;48.01;101700.72;4892116;29;20507;-93
2021/06/22 00:18:10;;;;;;;3.53;2.10;;;;;;;22.22;48.13;101703.34;4876614;29;20032;-93
2021/06/22 00:20:35;;;;;;;3.90;2.17;;;;;;;22.21;48.09;101713.81;4885846;29;20150;-94
2021/06/22 00:23:02;;;;;;;3.13;2.20;;;;;;;22.22;48.09;101707.69;4886245;29;20033;-95
2021/06/22 00:25:28;;;;;;;2.92;1.90;;;;;;;22.22;48.34;101708.59;4867925;29;20037;-93
2021/06/22 00:27:53;;;;;;;4.68;2.03;;;;;;;22.23;47.99;101709.44;4885033;29;20044;-93
2021/06/22 00:30:20;;;;;;;3.13;2.30;;;;;;;22.26;47.99;101709.41;4886730;29;20033;-93
2021/06/22 00:32:47;;;;;;;3.95;2.15;;;;;;;22.24;48.16;101712.06;4887244;29;20097;-92
2021/06/22 00:35:13;;;;;;;3.40;2.40;;;;;;;22.24;48.42;101706.81;4888318;29;20096;-93
2021/06/22 00:37:42;;;;;;;3.13;2.20;;;;;;;22.21;48.37;101693.72;4888148;29;20077;-92
2021/06/22 00:40:09;;;;;;;3.53;2.08;;;;;;;22.20;48.46;101689.34;4887543;29;20052;-93
2021/06/22 00:42:35;;;;;;;5.63;2.17;;;;;;;22.18;48.54;101694.59;4886023;29;20056;-94
2021/06/22 00:45:01;;;;;;;3.05;2.00;;;;;;;22.16;48.47;101704.25;4885265;29;20029;-93
2021/06/22 00:47:28;;;;;;;4.47;2.50;;;;;;;22.19;48.40;101704.22;4883375;29;20369;-94
2021/06/22 00:49:54;;;;;;;3.03;2.25;;;;;;;22.17;48.28;101708.63;4882835;29;20029;-93
2021/06/22 00:52:28;;;;;;;3.20;2.17;;;;;;;22.16;48.34;101708.63;4882279;29;20040;-94
2021/06/22 00:54:55;;;;;;;2.72;2.03;;;;;;;22.18;48.31;101717.34;4866671;29;20077;-93
2021/06/22 00:57:21;;;;;;;3.28;2.20;;;;;;;22.19;48.38;101722.56;4882130;29;20097;-94
2021/06/22 00:59:48;;;;;;;2.90;2.30;;;;;;;22.18;48.39;101715.59;4881753;29;20060;-93
2021/06/22 01:02:19;;;;;;;3.05;2.30;;;;;;;22.21;48.45;101719.94;4883461;29;20029;-94
2021/06/22 01:04:44;;;;;;;3.15;2.20;;;;;;;22.19;48.55;101726.97;4884092;29;20052;-94
2021/06/22 01:07:12;;;;;;;3.05;1.92;;;;;;;22.22;48.50;101726.94;4882098;29;20029;-93
2021/06/22 01:09:38;;;;;;;2.58;1.90;;;;;;;22.19;48.66;101730.44;4883066;29;20366;-92
2021/06/22 01:12:05;;;;;;;3.85;2.20;;;;;;;22.17;48.56;101724.34;4881566;29;20030;-94
2021/06/22 01:14:30;;;;;;;4.30;2.30;;;;;;;22.20;48.55;101726.06;4882446;29;20033;-94
2021/06/22 01:16:59;;;;;;;2.55;1.92;;;;;;;22.16;48.38;101703.41;4868551;29;20080;-92
2021/06/22 01:19:25;;;;;;;4.55;2.22;;;;;;;22.14;48.37;101705.16;4885246;29;20076;-94
2021/06/22 01:21:51;;;;;;;5.00;2.28;;;;;;;22.16;48.72;101708.63;4885290;29;20088;-93
2021/06/22 01:24:19;;;;;;;4.65;2.30;;;;;;;22.16;48.41;101698.16;4883443;29;20088;-92
2021/06/22 01:26:55;;;;;;;3.60;2.30;;;;;;;22.16;48.32;101692.91;4883730;29;20033;-93
2021/06/22 01:29:21;;;;;;;3.78;2.10;;;;;;;22.12;48.37;101697.34;4883733;29;20115;-93
2021/06/22 01:31:46;;;;;;;5.00;2.30;;;;;;;22.16;48.57;101699.00;4869309;29;20037;-94
2021/06/22 01:34:12;;;;;;;3.70;2.25;;;;;;;22.16;48.14;101699.00;4884532;29;20080;-93
2021/06/22 01:36:41;;;;;;;4.80;2.17;;;;;;;22.08;48.50;101697.41;4885106;29;20036;-93
2021/06/22 01:39:13;;;;;;;2.33;2.00;;;;;;;22.08;48.51;101708.78;4884971;29;20048;-92
2021/06/22 01:41:39;;;;;;;5.25;2.20;;;;;;;22.10;48.51;101695.63;4867920;29;20485;-93
2021/06/22 01:44:04;;;;;;;3.33;2.20;;;;;;;22.10;48.55;101691.25;4883692;29;20029;-93
2021/06/22 01:46:30;;;;;;;2.83;1.95;;;;;;;22.10;48.59;101691.25;4886550;29;20029;-93
2021/06/22 01:48:55;;;;;;;3.80;2.05;;;;;;;22.15;48.36;101704.31;4885103;29;20033;-93
2021/06/22 01:51:21;;;;;;;3.30;2.17;;;;;;;22.11;48.25;101713.94;4872429;29;20508;-93
2021/06/22 01:53:55;;;;;;;2.72;2.00;;;;;;;22.11;48.27;101715.72;4879723;29;20035;-93
2021/06/22 01:56:22;;;;;;;3.45;2.10;;;;;;;22.11;48.32;101723.56;4899684;29;20202;-93
2021/06/22 01:58:48;;;;;;;2.58;1.90;;;;;;;22.12;48.23;101720.06;4888819;29;20025;-92
2021/06/22 02:01:13;;;;;;;3.00;2.10;;;;;;;22.13;48.36;101729.66;4888812;29;20084;-93
2021/06/22 02:03:39;;;;;;;2.92;1.90;;;;;;;22.10;48.14;101727.97;4891248;29;20029;-92
2021/06/22 02:06:05;;;;;;;4.40;2.30;;;;;;;22.13;48.13;101733.16;4890544;29;20037;-92
2021/06/22 02:08:30;;;;;;;3.58;2.13;;;;;;;22.10;48.24;101740.19;4875022;29;20033;-94
2021/06/22 02:10:56;;;;;;;2.63;1.90;;;;;;;22.11;48.38;101740.16;4876034;29;20029;-93
2021/06/22 02:13:21;;;;;;;5.72;2.10;;;;;;;22.14;48.06;101737.47;4892576;29;20028;-94
2021/06/22 02:15:49;;;;;;;3.67;2.00;;;;;;;22.14;47.96;101739.25;4893686;29;20029;-93
2021/06/22 02:18:14;;;;;;;2.97;2.28;;;;;;;22.14;48.14;101736.63;4893769;29;20022;-94
2021/06/22 02:20:41;;;;;;;2.72;2.10;;;;;;;22.11;47.96;101728.81;4880186;29;20036;-92
2021/06/22 02:23:07;;;;;;;2.72;2.10;;;;;;;22.11;48.07;101721.81;4893029;29;20040;-94
2021/06/22 02:25:33;;;;;;;3.47;2.05;;;;;;;22.11;47.92;101726.19;4877283;29;20137;-94
2021/06/22 02:28:09;;;;;;;3.63;2.13;;;;;;;22.12;48.12;101726.19;4892740;29;20029;-92
2021/06/22 02:30:36;;;;;;;5.93;2.30;;;;;;;22.09;47.85;101725.34;4894242;29;20033;-92
2021/06/22 02:33:02;;;;;;;3.17;2.20;;;;;;;22.10;47.97;101727.06;4894235;29;20037;-94
2021/06/22 02:35:29;;;;;;;4.00;2.30;;;;;;;22.10;47.82;101721.81;4893863;29;20032;-91
2021/06/22 02:37:58;;;;;;;4.75;2.22;;;;;;;22.10;48.28;101725.34;4889378;29;20041;-93
2021/06/22 02:40:25;;;;;;;3.67;2.20;;;;;;;22.12;47.78;101723.56;4891462;29;20659;-93
2021/06/22 02:42:51;;;;;;;3.05;2.28;;;;;;;22.13;47.71;101727.03;4879112;29;20033;-93
2021/06/22 02:45:17;;;;;;;2.80;2.20;;;;;;;22.16;47.64;101732.22;4896330;29;20033;-93
2021/06/22 02:47:47;;;;;;;3.65;2.40;;;;;;;22.13;47.97;101720.03;4896762;29;20511;-92
2021/06/22 02:50:13;;;;;;;3.85;2.75;;;;;;;22.10;47.72;101722.72;4897526;29;20025;-92
2021/06/22 02:52:39;;;;;;;7.13;2.55;;;;;;;22.07;48.01;101727.13;4895512;29;20036;-94
2021/06/22 02:55:17;;;;;;;4.72;2.67;;;;;;;22.09;47.72;101718.34;4896426;29;20096;-93
2021/06/22 02:57:44;;;;;;;6.65;2.90;;;;;;;22.06;47.77;101714.91;4896712;29;20025;-92
2021/06/22 03:00:10;;;;;;;2.65;2.10;;;;;;;22.11;47.89;101720.97;4897333;29;20021;-92
2021/06/22 03:02:35;;;;;;;3.95;2.70;;;;;;;22.09;47.70;101717.50;4882856;29;20030;-93
2021/06/22 03:05:01;;;;;;;3.85;2.40;;;;;;;22.09;47.63;101720.09;4897157;29;20093;-92
2021/06/22 03:07:26;;;;;;;3.97;2.58;;;;;;;22.09;47.75;101720.97;4881626;29;20112;-91
2021/06/22 03:09:52;;;;;;;6.00;2.88;;;;;;;22.08;47.71;101715.75;4897322;29;20025;-93
2021/06/22 03:12:17;;;;;;;4.57;3.13;;;;;;;22.05;47.60;101713.19;4895699;29;20047;-92
2021/06/22 03:14:43;;;;;;;4.45;2.83;;;;;;;22.04;47.32;101712.31;4896913;29;20021;-93
2021/06/22 03:17:08;;;;;;;4.82;2.70;;;;;;;22.09;47.82;101725.34;4866361;29;20029;-92
2021/06/22 03:19:33;;;;;;;3.88;2.95;;;;;;;22.10;47.68;101724.44;4897560;29;20025;-92
2021/06/22 03:21:59;;;;;;;3.92;2.90;;;;;;;22.08;47.74;101716.63;4875697;29;20044;-93
2021/06/22 03:24:24;;;;;;;4.75;2.80;;;;;;;22.11;48.21;101726.19;4895769;29;20025;-92
2021/06/22 03:26:50;;;;;;;3.97;3.17;;;;;;;22.08;47.43;101724.50;4893883;29;20396;-93
2021/06/22 03:29:15;;;;;;;3.97;2.88;;;;;;;22.06;47.66;101722.75;4895141;29;20056;-92
2021/06/22 03:31:41;;;;;;;3.67;3.13;;;;;;;22.09;47.72;101736.69;4896282;29;20128;-91
2021/06/22 03:34:07;;;;;;;5.43;3.20;;;;;;;22.10;47.84;101738.44;4898886;29;20057;-91
2021/06/22 03:36:33;;;;;;;5.35;2.80;;;;;;;22.08;47.67;101731.47;4898523;29;20040;-92
2021/06/22 03:38:59;;;;;;;4.05;3.10;;;;;;;22.09;47.49;101741.09;4895439;29;20059;-92
2021/06/22 03:41:24;;;;;;;4.95;3.47;;;;;;;22.10;47.66;101748.03;4889556;29;20039;-92
2021/06/22 03:43:50;;;;;;;4.35;3.28;;;;;;;22.08;47.74;101755.94;4894601;29;20029;-90
2021/06/22 03:46:18;;;;;;;5.18;3.30;;;;;;;22.10;47.85;101763.78;4901884;29;20021;-93
2021/06/22 03:48:43;;;;;;;3.70;3.05;;;;;;;22.09;47.72;101765.53;4902813;29;20054;-91
2021/06/22 03:51:09;;;;;;;5.95;3.47;;;;;;;22.12;47.43;101773.38;4902086;29;20009;-92
2021/06/22 03:53:37;;;;;;;5.70;3.45;;;;;;;22.11;47.89;101784.72;4884503;29;20037;-91
2021/06/22 03:56:03;;;;;;;5.35;3.38;;;;;;;22.11;47.66;101786.50;4899572;29;20021;-91
2021/06/22 03:58:28;;;;;;;5.35;3.47;;;;;;;22.10;47.75;101789.97;4898721;29;20045;-92
2021/06/22 04:00:57;;;;;;;5.45;3.67;;;;;;;22.07;47.43;101793.50;4897651;29;20084;-93
2021/06/22 04:03:22;;;;;;;6.20;3.88;;;;;;;22.08;47.57;101797.00;4898201;29;20029;-92
2021/06/22 04:05:48;;;;;;;4.00;3.50;;;;;;;22.09;47.78;101794.38;4898324;29;20028;-92
2021/06/22 04:08:14;;;;;;;6.43;3.97;;;;;;;22.11;47.78;101796.97;4882825;29;20040;-94
2021/06/22 04:10:39;;;;;;;5.32;4.30;;;;;;;22.08;47.52;101800.50;4881360;29;20025;-93
2021/06/22 04:13:05;;;;;;;4.05;3.65;;;;;;;22.09;47.46;101790.88;4892720;29;20036;-93
2021/06/22 04:15:30;;;;;;;5.93;4.00;;;;;;;22.06;47.38;101783.94;4888862;29;20025;-92
2021/06/22 04:18:07;;;;;;;4.20;3.75;;;;;;;22.09;47.44;101793.50;4884806;29;20029;-93
2021/06/22 04:20:34;;;;;;;4.32;3.85;;;;;;;22.08;47.54;101795.28;4900867;29;20025;-91
2021/06/22 04:23:03;;;;;;;5.25;4.15;;;;;;;22.05;47.20;101791.81;4895466;29;20040;-93
2021/06/22 04:25:29;;;;;;;5.88;4.22;;;;;;;22.00;47.38;101789.25;4895128;29;20032;-92
2021/06/22 04:31:30;;;;;;;7.20;4.55;;;;;;;22.02;47.51;101777.00;4893077;29;20110;-93
2021/06/22 04:33:56;;;;;;;4.85;4.07;;;;;;;22.05;47.85;101778.69;4900583;29;20056;-91
2021/06/22 04:36:23;;;;;;;4.22;3.45;;;;;;;22.08;47.71;101776.91;4902569;29;20076;-91
2021/06/22 04:38:48;;;;;;;3.90;3.47;;;;;;;22.10;47.94;101769.91;4901770;29;20040;-92
2021/06/22 04:41:14;;;;;;;6.57;4.07;;;;;;;22.12;47.33;101769.84;4901766;29;20116;-94
2021/06/22 04:43:39;;;;;;;4.65;3.80;;;;;;;22.12;47.69;101770.75;4885607;29;20041;-91
2021/06/22 04:46:05;;;;;;;5.90;4.00;;;;;;;22.18;47.53;101790.75;4882436;29;20025;-92
2021/06/22 04:48:31;;;;;;;4.15;3.60;;;;;;;22.19;47.41;101782.88;4881315;29;20029;-92
2021/06/22 04:50:59;;;;;;;4.25;3.85;;;;;;;22.25;47.20;101788.94;4880328;29;20025;-91
2021/06/22 04:53:27;;;;;;;5.30;3.70;;;;;;;22.24;47.26;101790.72;4883334;24;20078;-93
2021/06/22 04:55:53;;;;;;;3.65;3.35;;;;;;;22.25;47.12;101784.56;4876413;24;20065;-93
2021/06/22 04:58:19;;;;;;;5.15;4.40;;;;;;;22.18;46.67;101783.75;4897478;29;20071;-92
2021/06/22 05:00:45;;;;;;;8.38;5.30;;;;;;;22.05;45.46;101781.31;4897856;29;20024;-92
2021/06/22 05:03:10;;;;;;;8.15;5.18;;;;;;;21.98;45.06;101789.25;4901704;29;20027;-92
2021/06/22 05:05:42;;;;;;;6.60;5.10;;;;;;;21.93;45.22;101788.47;4902840;29;20028;-91
2021/06/22 05:08:08;;;;;;;8.02;5.50;;;;;;;21.88;45.08;101792.00;4900112;29;20070;-93
2021/06/22 05:10:34;;;;;;;8.32;6.00;;;;;;;21.85;44.48;101792.94;4883483;29;20052;-93
2021/06/22 05:13:06;;;;;;;9.90;6.10;;;;;;;21.89;45.58;101805.09;4892283;23;20053;-92
2021/06/22 05:15:31;;;;;;;11.95;5.85;;;;;;;21.81;44.86;101804.31;4865016;29;20062;-93
2021/06/22 05:17:58;;;;;;;9.15;6.25;;;;;;;21.73;44.73;101811.41;4875472;29;20029;-91
2021/06/22 05:20:25;;;;;;;11.00;6.28;;;;;;;21.74;45.31;101814.00;4876795;29;20025;-93
2021/06/22 05:22:52;;;;;;;15.13;6.63;;;;;;;21.53;43.65;101814.25;4873268;29;20124;-93
2021/06/22 05:25:17;;;;;;;11.75;7.30;;;;;;;21.35;42.47;101807.44;4873362;29;20028;-93
2021/06/22 05:27:45;;;;;;;13.00;7.53;;;;;;;21.31;43.24;101811.81;4857579;29;20033;-93
2021/06/22 05:30:11;;;;;;;13.30;7.38;;;;;;;21.28;42.72;101811.84;4872691;29;20025;-93
2021/06/22 05:32:37;;;;;;;11.38;7.78;;;;;;;21.31;42.49;101819.66;4871278;29;21001;-94
2021/06/22 05:35:03;;;;;;;12.80;7.53;;;;;;;21.34;42.51;101813.56;4870586;29;20037;-94
2021/06/22 05:37:28;;;;;;;11.68;7.72;;;;;;;21.43;42.16;101810.88;4872892;29;20089;-92
2021/06/22 05:39:54;;;;;;;12.35;7.70;;;;;;;21.47;42.22;101822.16;4873072;29;20093;-94
2021/06/22 05:42:19;;;;;;;13.07;7.53;;;;;;;21.50;42.32;101820.38;4871580;29;20037;-94
2021/06/22 05:44:45;;;;;;;11.25;7.32;;;;;;;21.51;42.10;101822.16;4871506;29;20037;-93
2021/06/22 05:47:10;;;;;;;10.20;6.93;;;;;;;21.51;42.13;101826.50;4872029;29;20115;-93
2021/06/22 05:49:36;;;;;;;10.98;7.32;;;;;;;21.53;41.83;101828.19;4870338;29;20113;-93
2021/06/22 05:52:03;;;;;;;11.70;7.03;;;;;;;21.53;41.67;101832.59;4867938;29;20034;-93
2021/06/22 05:54:28;;;;;;;11.10;7.35;;;;;;;21.62;41.70;101836.84;4867508;29;20508;-92
2021/06/22 05:57:03;;;;;;;15.40;7.72;;;;;;;21.71;41.72;101836.75;4866896;29;20025;-94
2021/06/22 05:59:28;;;;;;;10.05;7.20;;;;;;;21.77;41.39;101840.19;4865758;29;20124;-96
2021/06/22 06:01:53;;;;;;;12.20;7.03;;;;;;;21.82;41.08;101836.63;4850179;29;20128;-91
2021/06/22 06:04:19;;;;;;;11.07;7.43;;;;;;;21.97;41.08;101841.69;4868347;29;20457;-94
2021/06/22 06:06:45;;;;;;;11.75;7.50;;;;;;;22.29;39.94;101837.84;4867031;29;20036;-93
2021/06/22 06:09:10;;;;;;;9.55;7.15;;;;;;;22.73;38.69;101833.69;4852516;29;20186;-94
2021/06/22 06:11:35;;;;;;;10.75;7.00;;;;;;;23.19;37.71;101836.50;4865744;29;20025;-94
2021/06/22 06:14:02;;;;;;;9.48;6.10;;;;;;;23.51;36.41;101837.66;4865449;29;20049;-93
2021/06/22 06:16:27;;;;;;;11.95;6.93;;;;;;;23.83;36.52;101833.59;4865706;29;20033;-93
2021/06/22 06:18:53;;;;;;;11.02;6.80;;;;;;;24.05;35.11;101841.88;4867969;29;20045;-93
2021/06/22 06:21:24;;;;;;;11.40;6.55;;;;;;;24.20;36.22;101830.19;4870307;29;20029;-93
2021/06/22 06:23:56;;;;;;;10.85;7.05;;;;;;;23.69;36.13;101839.09;4864036;29;20029;-91
2021/06/22 06:26:24;;;;;;;10.73;7.00;;;;;;;23.20;36.06;101834.72;4864207;29;20031;-91
2021/06/22 06:28:51;;;;;;;11.77;6.38;;;;;;;23.05;35.53;101832.38;4864954;29;20552;-91
2021/06/22 06:31:17;;;;;;;12.57;6.75;;;;;;;22.97;35.11;101827.19;4867126;29;20422;-91
2021/06/22 06:33:42;;;;;;;16.10;7.15;;;;;;;22.96;34.85;101820.22;4854286;29;20065;-94
2021/06/22 06:36:08;;;;;;;12.63;7.32;;;;;;;22.91;35.19;101825.56;4868585;29;20121;-92
2021/06/22 06:38:34;;;;;;;16.05;7.35;;;;;;;22.86;35.19;101829.13;4865507;29;20073;-94
2021/06/22 06:40:59;;;;;;;16.30;7.65;;;;;;;22.90;34.72;101834.28;4866664;29;20033;-90
2021/06/22 06:43:27;;;;;;;12.95;7.05;;;;;;;22.83;34.91;101844.94;4864987;29;20022;-91
2021/06/22 06:45:55;;;;;;;13.32;6.63;;;;;;;22.79;34.92;101833.59;4864224;29;20056;-92
2021/06/22 06:48:23;;;;;;;13.43;6.97;;;;;;;22.88;34.35;101837.84;4864060;29;20138;-91
2021/06/22 06:50:48;;;;;;;15.73;6.63;;;;;;;22.82;34.59;101835.31;4864345;29;20029;-93
2021/06/22 06:53:14;;;;;;;12.02;6.45;;;;;;;22.73;34.85;101841.56;4865141;29;20085;-91
2021/06/22 06:59:48;;;;;;;14.63;6.90;;;;;;;22.63;34.83;101840.00;4864687;29;20129;-91
2021/06/22 07:05:39;;;;;;;12.20;6.60;;;;;;;22.55;34.77;101840.09;4865079;29;20076;-91
2021/06/22 07:08:09;;;;;;;11.02;5.68;;;;;;;22.39;34.79;101852.56;4863282;29;20021;-92
2021/06/22 07:15:00;;;;;;;15.35;6.22;;;;;;;22.28;35.06;101841.38;4848821;29;20076;-93
2021/06/22 07:17:28;;;;;;;13.73;6.68;;;;;;;22.28;34.98;101852.72;4827064;29;20039;-94
2021/06/22 07:27:46;;;;;;;10.63;6.32;;;;;;;22.27;34.91;101858.81;4881275;29;20060;-92
2021/06/22 07:30:34;;;;;;;10.60;6.72;;;;;;;22.13;34.89;101852.88;4867362;29;20047;-93
2021/06/22 07:36:22;;;;;;;15.05;6.85;;;;;;;21.98;35.12;101861.78;4884877;29;20047;-92
2021/06/22 07:39:08;;;;;;;12.00;6.60;;;;;;;21.81;35.46;101872.44;4886201;29;20117;-92
2021/06/22 07:41:43;;;;;;;12.23;6.60;;;;;;;21.86;35.20;101864.53;4885051;29;20092;-93
2021/06/22 07:44:16;;;;;;;14.57;6.90;;;;;;;21.84;35.32;101867.19;4885218;29;20033;-92
2021/06/22 07:46:41;;;;;;;13.93;6.82;;;;;;;21.87;35.40;101866.28;4886991;29;20026;-92
2021/06/22 07:49:13;;;;;;;13.45;6.57;;;;;;;21.99;35.13;101863.50;4884364;29;20040;-91
2021/06/22 07:51:39;;;;;;;12.27;6.13;;;;;;;21.80;35.09;101867.22;4883101;29;20025;-91
2021/06/22 07:54:04;;;;;;;12.73;6.72;;;;;;;21.70;35.67;101869.09;4884024;29;20048;-90
2021/06/22 07:56:33;;;;;;;11.35;5.97;;;;;;;21.70;35.55;101882.19;4884440;29;20021;-91
2021/06/22 07:58:58;;;;;;;11.45;6.05;;;;;;;21.84;35.53;101876.78;4881855;29;20396;-91
2021/06/22 08:01:26;;;;;;;9.38;6.22;;;;;;;21.89;35.54;101870.63;4882135;29;20033;-92
2021/06/22 08:03:51;;;;;;;11.90;6.35;;;;;;;21.91;35.29;101873.22;4866491;29;20040;-91
2021/06/22 08:06:20;;;;;;;10.40;6.00;;;;;;;21.82;35.29;101875.94;4880591;29;20041;-91
2021/06/22 08:08:45;;;;;;;10.75;6.53;;;;;;;21.84;35.23;101882.91;4866309;29;20033;-91
2021/06/22 08:11:21;;;;;;;10.38;5.93;;;;;;;21.81;35.35;101880.31;4880966;29;20035;-91
2021/06/22 08:13:46;;;;;;;13.68;6.28;;;;;;;21.71;35.68;101883.91;4881961;29;20029;-90
2021/06/22 08:16:12;;;;;;;12.20;6.55;;;;;;;21.76;35.71;101874.25;4884923;29;20040;-90
2021/06/22 08:18:37;;;;;;;15.38;6.13;;;;;;;21.84;35.83;101869.81;4883762;29;20385;-91
2021/06/22 08:21:05;;;;;;;9.95;5.57;;;;;;;21.82;35.78;101862.84;4887271;29;20033;-91
2021/06/22 08:23:51;;;;;;;12.65;6.25;;;;;;;21.74;35.87;101862.94;4893608;29;20036;-91
2021/06/22 08:26:16;;;;;;;11.02;6.03;;;;;;;21.67;35.96;101856.03;4899276;29;20505;-90
2021/06/22 08:28:42;;;;;;;10.30;5.68;;;;;;;21.60;36.28;101863.09;4886906;29;20119;-91
2021/06/22 08:31:07;;;;;;;10.98;6.00;;;;;;;21.56;36.49;101870.09;4899308;23;20553;-92
2021/06/22 08:33:33;;;;;;;9.43;5.80;;;;;;;21.65;36.16;101876.13;4891006;24;20060;-90
2021/06/22 08:35:58;;;;;;;8.10;5.38;;;;;;;21.65;36.19;101871.75;4865960;29;20502;-92
2021/06/22 08:38:24;;;;;;;9.52;5.47;;;;;;;21.67;35.98;101875.22;4880561;29;20589;-92
2021/06/22 08:41:04;;;;;;;10.65;5.22;;;;;;;21.45;36.23;101873.69;4880345;29;20085;-92
2021/06/22 08:43:30;;;;;;;10.45;5.20;;;;;;;21.42;36.44;101871.97;4865341;29;20109;-92
2021/06/22 08:46:04;;;;;;;9.18;5.07;;;;;;;21.45;36.18;101869.34;4881232;29;20426;-91
2021/06/22 08:48:30;;;;;;;10.23;4.80;;;;;;;21.36;36.61;101872.88;4864738;29;20033;-91
2021/06/22 08:50:56;;;;;;;8.93;4.43;;;;;;;21.35;36.26;101865.03;4864511;29;20112;-91
2021/06/22 08:53:22;;;;;;;11.27;4.30;;;;;;;21.32;36.50;101860.69;4864311;29;20123;-91
2021/06/22 08:55:47;;;;;;;10.63;4.60;;;;;;;21.48;35.99;101868.44;4864664;29;20029;-92
2021/06/22 08:58:16;;;;;;;9.35;4.70;;;;;;;21.54;35.99;101858.75;4865271;29;20025;-92
2021/06/22 09:00:45;;;;;;;8.95;4.63;;;;;;;21.58;35.81;101851.75;4864935;29;20143;-91
2021/06/22 09:03:13;;;;;;;9.93;4.10;;;;;;;21.55;35.34;101859.63;4881154;29;20044;-92
2021/06/22 09:05:44;;;;;;;11.13;4.35;;;;;;;21.57;35.02;101865.72;4864572;29;20064;-92
2021/06/22 09:08:36;;;;;;;8.35;4.03;;;;;;;21.54;34.74;101861.38;4875047;23;20054;-94
2021/06/22 09:11:09;;;;;;;8.98;4.45;;;;;;;21.63;35.15;101867.41;4833138;29;20049;-92
2021/06/22 09:13:56;;;;;;;10.90;4.50;;;;;;;21.55;35.47;101864.88;4861565;29;20041;-92
2021/06/22 09:16:21;;;;;;;8.23;3.95;;;;;;;21.58;35.54;101867.47;4861391;29;20426;-92
2021/06/22 09:18:47;;;;;;;7.75;4.32;;;;;;;21.58;35.78;101870.09;4861609;29;20050;-92
2021/06/22 09:21:22;;;;;;;9.15;4.10;;;;;;;21.50;36.02;101872.78;4861510;29;20037;-92
2021/06/22 09:23:50;;;;;;;7.15;4.53;;;;;;;21.48;36.52;101877.16;4861220;29;20026;-91
2021/06/22 09:26:27;;;;;;;10.15;4.30;;;;;;;21.38;37.09;101880.69;4860905;29;20021;-91
2021/06/22 09:29:05;;;;;;;9.85;4.38;;;;;;;21.34;37.27;101898.19;4847268;29;20045;-90
2021/06/22 09:32:04;;;;;;;9.55;4.70;;;;;;;21.40;37.33;101883.31;4862084;29;20033;-92
2021/06/22 09:34:30;;;;;;;8.35;5.00;;;;;;;21.45;37.18;101873.69;4861332;29;20038;-91
2021/06/22 09:36:58;;;;;;;10.55;4.80;;;;;;;21.45;36.87;101873.69;4862216;29;20053;-92
2021/06/22 09:39:26;;;;;;;10.65;4.80;;;;;;;21.38;36.98;101880.69;4861517;29;20533;-92
2021/06/22 09:41:53;;;;;;;11.20;4.80;;;;;;;21.35;37.01;101876.34;4861115;29;20038;-91
2021/06/22 09:44:29;;;;;;;13.57;5.18;;;;;;;21.39;36.42;101885.06;4861367;29;20032;-91
2021/06/22 09:47:07;;;;;;;10.57;4.88;;;;;;;21.44;37.01;101877.19;4861295;29;20022;-92
2021/06/22 09:53:25;;;;;;;14.20;5.20;;;;;;;21.32;36.37;101872.91;4842451;29;20090;-91
2021/06/22 09:55:50;;;;;;;11.15;5.15;;;;;;;21.33;36.22;101870.25;4828092;29;20042;-93
2021/06/22 09:58:16;;;;;;;16.45;5.32;;;;;;;21.36;36.43;101871.97;4828212;29;20063;-93
2021/06/22 10:00:44;;;;;;;11.80;5.53;;;;;;;21.41;36.46;101869.34;4831225;29;20121;-94
2021/06/22 10:03:14;;;;;;;10.02;4.72;;;;;;;21.39;36.69;101873.72;4848338;29;20034;-92
2021/06/22 10:06:09;;;;;;;13.40;5.35;;;;;;;21.36;36.76;101866.75;4835208;29;20494;-91
2021/06/22 10:08:59;;;;;;;12.05;5.43;;;;;;;21.42;36.32;101863.25;4833818;29;20034;-92
2021/06/22 10:11:42;;;;;;;12.00;5.55;;;;;;;21.43;36.19;101859.75;4831378;29;20038;-92
2021/06/22 10:14:45;;;;;;;10.52;4.97;;;;;;;21.42;36.48;101858.88;4846389;29;20105;-92
2021/06/22 10:17:18;;;;;;;12.00;5.60;;;;;;;21.43;36.34;101855.38;4831515;29;20030;-93
2021/06/22 10:23:50;;;;;;;12.35;5.25;;;;;;;21.52;36.51;101859.66;4877666;29;20048;-92
2021/06/22 10:26:20;;;;;;;11.95;5.80;;;;;;;21.56;36.39;101856.13;4869404;29;20101;-92
2021/06/22 10:28:51;;;;;;;11.38;5.93;;;;;;;21.48;36.69;101848.34;4872702;29;20030;-92
2021/06/22 10:31:19;;;;;;;12.20;6.30;;;;;;;21.51;37.05;101852.69;4875665;29;20062;-93
2021/06/22 10:33:53;;;;;;;9.63;5.53;;;;;;;21.42;37.20;101853.63;4858016;29;20085;-92
2021/06/22 10:40:01;;;;;;;12.63;6.18;;;;;;;21.42;37.18;101856.25;4870317;29;20040;-91
2021/06/22 10:42:41;;;;;;;13.00;6.50;;;;;;;21.43;37.40;101862.38;4867650;29;20029;-92
2021/06/22 10:45:10;;;;;;;13.52;6.10;;;;;;;21.43;37.48;101868.47;4869116;29;20026;-92
2021/06/22 10:47:38;;;;;;;13.25;6.15;;;;;;;21.45;37.38;101861.47;4854819;29;20045;-92
2021/06/22 11:00:49;;;;;;;13.45;6.20;;;;;;;21.51;37.62;101879.75;4866159;29;20125;-94
2021/06/22 11:07:21;;;;;;;11.95;5.95;;;;;;;21.56;37.56;101891.06;4867533;29;20125;-94
2021/06/22 11:10:10;;;;;;;12.85;6.32;;;;;;;21.56;36.75;101895.44;4864982;29;20074;-93
2021/06/22 11:19:56;;;;;;;12.85;6.10;;;;;;;21.46;37.86;101901.63;4864309;29;20394;-92
2021/06/22 11:26:34;;;;;;;10.52;6.63;;;;;;;21.29;37.59;101891.25;4865551;29;20051;-93
2021/06/22 11:33:14;;;;;;;12.90;7.00;;;;;;;21.29;37.84;101892.13;4875714;23;20087;-93
2021/06/22 11:45:50;;;;;;;15.50;7.38;;;;;;;21.44;38.36;101882.44;4863835;29;20120;-93
2021/06/22 13:39:59;;;;;;;9.55;6.38;;;;;;;21.60;35.52;101919.81;4879659;29;20059;-94
2021/06/22 13:42:27;;;;;;;9.82;7.10;;;;;;;21.59;35.59;101926.81;4868872;29;20150;-93
2021/06/22 13:44:53;;;;;;;11.30;6.90;;;;;;;21.57;35.25;101928.56;4868640;29;20492;-93
2021/06/22 13:47:47;;;;;;;8.98;6.22;;;;;;;21.52;34.99;101926.00;4868571;29;20036;-94
2021/06/22 13:50:13;;;;;;;9.30;6.40;;;;;;;21.46;34.68;101931.28;4885085;23;20061;-94
2021/06/22 13:52:44;;;;;;;12.02;6.85;;;;;;;21.44;34.93;101914.72;4902501;29;20057;-93
2021/06/22 13:58:12;;;;;;;9.35;5.93;;;;;;;21.50;35.11;101924.28;4886391;29;20027;-94
2021/06/22 14:00:41;;;;;;;8.88;6.50;;;;;;;21.44;34.89;101922.56;4868692;29;20029;-94
2021/06/22 14:03:20;;;;;;;;;;;;;;;;;;;;;
2021/06/22 14:05:47;;;;;;;8.52;6.28;;;;;;;21.36;34.93;101921.72;4886987;29;20039;-92
2021/06/22 14:08:13;;;;;;;11.18;6.88;;;;;;;21.34;34.56;101931.38;4868269;29;20024;-94
2021/06/22 14:10:45;;;;;;;9.23;6.60;;;;;;;21.31;34.21;101932.25;4867866;29;20033;-94
2021/06/22 14:13:13;;;;;;;10.80;6.15;;;;;;;21.37;34.56;101933.97;4867514;29;20400;-93
2021/06/22 14:15:39;;;;;;;9.82;6.50;;;;;;;21.37;35.21;101934.81;4867702;29;20033;-94
2021/06/22 14:18:05;;;;;;;10.52;5.97;;;;;;;21.40;35.70;101933.91;4868150;29;20081;-93
2021/06/22 14:20:32;;;;;;;14.52;6.05;;;;;;;21.41;35.77;101926.97;4867691;29;20552;-93
2021/06/22 14:23:00;;;;;;;11.63;5.68;;;;;;;21.42;36.15;101937.44;4852084;29;20152;-93
2021/06/22 14:25:28;;;;;;;8.68;5.13;;;;;;;21.34;36.25;101942.72;4883204;29;20029;-93
2021/06/22 14:27:54;;;;;;;12.45;5.15;;;;;;;21.32;36.24;101947.09;4867576;29;20495;-94
2021/06/22 14:30:22;;;;;;;10.85;5.20;;;;;;;21.27;36.40;101948.84;4868993;29;20029;-94
2021/06/22 14:32:50;;;;;;;9.38;4.95;;;;;;;21.24;36.57;101945.41;4883347;29;20029;-93
2021/06/22 14:35:18;;;;;;;7.35;4.90;;;;;;;21.17;36.43;101948.06;4851849;29;20040;-92
2021/06/22 14:37:45;;;;;;;11.15;4.80;;;;;;;21.15;36.53;101954.19;4872857;29;20021;-93
2021/06/22 14:40:14;;;;;;;9.98;4.93;;;;;;;21.12;36.55;101952.47;4883231;29;20092;-93
2021/06/22 14:42:43;;;;;;;10.77;4.75;;;;;;;21.15;36.58;101951.56;4868631;29;20036;-92